El Turbio, Argentina
Current Conditions -  °F | °C
As of 9:27 AM on Thursday 30 Oct 2014 (Local Time) from SCCI Reporting Station
Snow Showers Snow Showers  
Wind Chill: 14°   Ceiling: 1500
Heat Index: 36°   Visibility: 1.8mi
Dew Point: 32°   Wind: 253mph
Humidity: 87%   Direction: 180°S
Pressure: 29.32"   Gusts: NA
Location:  51.61°S, 72.19°W
Report Text: SCCI 301227Z 180220KT 3000 -SHSN OVC015 02/00 Q0993 NOSIG
Loading
Personal Weather Stations






























Interactive Weather Map
Tropical Storm Tracking
New forecast layout! Learn more

10-Day Weather Forecast

Advertisements
Track Severe Weather on mobile